sensor_id;sensor_type;location;lat;lon;timestamp;P1;durP1;ratioP1;P2;durP2;ratioP2
20844;SDS011;10583;49.084;8.646;2024-02-16T00:01:25;4.20;;;4.20;;
20844;SDS011;10583;49.084;8.646;2024-02-16T00:03:52;4.97;;;4.97;;
20844;SDS011;10583;49.084;8.646;2024-02-16T00:06:19;4.80;;;4.80;;
20844;SDS011;10583;49.084;8.646;2024-02-16T00:08:48;4.30;;;4.30;;
20844;SDS011;10583;49.084;8.646;2024-02-16T00:11:19;4.57;;;4.57;;
20844;SDS011;10583;49.084;8.646;2024-02-16T00:13:48;4.53;;;4.53;;
20844;SDS011;10583;49.084;8.646;2024-02-16T00:16:14;3.80;;;3.80;;
20844;SDS011;10583;49.084;8.646;2024-02-16T00:18:41;3.90;;;3.90;;
20844;SDS011;10583;49.084;8.646;2024-02-16T00:21:08;4.27;;;4.27;;
20844;SDS011;10583;49.084;8.646;2024-02-16T00:23:35;4.07;;;4.07;;
20844;SDS011;10583;49.084;8.646;2024-02-16T00:26:04;4.67;;;4.67;;
20844;SDS011;10583;49.084;8.646;2024-02-16T00:28:35;4.70;;;4.70;;
20844;SDS011;10583;49.084;8.646;2024-02-16T00:31:02;4.80;;;4.80;;
20844;SDS011;10583;49.084;8.646;2024-02-16T00:33:30;4.67;;;4.67;;
20844;SDS011;10583;49.084;8.646;2024-02-16T00:35:58;5.23;;;5.23;;
20844;SDS011;10583;49.084;8.646;2024-02-16T00:38:25;5.23;;;5.23;;
20844;SDS011;10583;49.084;8.646;2024-02-16T00:40:52;5.57;;;5.57;;
20844;SDS011;10583;49.084;8.646;2024-02-16T00:43:18;4.97;;;4.97;;
20844;SDS011;10583;49.084;8.646;2024-02-16T00:45:47;4.60;;;4.60;;
20844;SDS011;10583;49.084;8.646;2024-02-16T00:48:14;4.80;;;4.80;;
20844;SDS011;10583;49.084;8.646;2024-02-16T00:50:41;4.50;;;4.50;;
20844;SDS011;10583;49.084;8.646;2024-02-16T00:53:08;4.47;;;4.47;;
20844;SDS011;10583;49.084;8.646;2024-02-16T00:55:35;4.50;;;4.50;;
20844;SDS011;10583;49.084;8.646;2024-02-16T00:58:06;4.37;;;4.37;;
20844;SDS011;10583;49.084;8.646;2024-02-16T01:00:33;4.73;;;4.73;;
20844;SDS011;10583;49.084;8.646;2024-02-16T01:03:02;4.43;;;4.43;;
20844;SDS011;10583;49.084;8.646;2024-02-16T01:05:40;4.77;;;4.77;;
20844;SDS011;10583;49.084;8.646;2024-02-16T01:08:08;4.17;;;4.17;;
20844;SDS011;10583;49.084;8.646;2024-02-16T01:10:35;4.13;;;4.13;;
20844;SDS011;10583;49.084;8.646;2024-02-16T01:13:02;4.30;;;4.30;;
20844;SDS011;10583;49.084;8.646;2024-02-16T01:15:30;4.23;;;4.23;;
20844;SDS011;10583;49.084;8.646;2024-02-16T01:17:57;4.50;;;4.50;;
20844;SDS011;10583;49.084;8.646;2024-02-16T01:20:26;4.73;;;4.73;;
20844;SDS011;10583;49.084;8.646;2024-02-16T01:22:56;4.83;;;4.83;;
20844;SDS011;10583;49.084;8.646;2024-02-16T01:25:23;4.27;;;4.27;;
20844;SDS011;10583;49.084;8.646;2024-02-16T01:27:50;5.03;;;5.03;;
20844;SDS011;10583;49.084;8.646;2024-02-16T01:30:16;4.63;;;4.63;;
20844;SDS011;10583;49.084;8.646;2024-02-16T01:32:45;4.70;;;4.70;;
20844;SDS011;10583;49.084;8.646;2024-02-16T01:35:12;5.57;;;5.57;;
20844;SDS011;10583;49.084;8.646;2024-02-16T01:37:45;4.90;;;4.90;;
20844;SDS011;10583;49.084;8.646;2024-02-16T01:40:12;5.13;;;5.13;;
20844;SDS011;10583;49.084;8.646;2024-02-16T01:42:42;4.93;;;4.93;;
20844;SDS011;10583;49.084;8.646;2024-02-16T01:45:09;5.00;;;5.00;;
20844;SDS011;10583;49.084;8.646;2024-02-16T01:47:37;4.90;;;4.90;;
20844;SDS011;10583;49.084;8.646;2024-02-16T01:50:05;4.67;;;4.67;;
20844;SDS011;10583;49.084;8.646;2024-02-16T01:52:33;4.87;;;4.87;;
20844;SDS011;10583;49.084;8.646;2024-02-16T01:55:03;4.30;;;4.30;;
20844;SDS011;10583;49.084;8.646;2024-02-16T01:57:34;5.87;;;5.87;;
20844;SDS011;10583;49.084;8.646;2024-02-16T02:00:05;5.00;;;5.00;;
20844;SDS011;10583;49.084;8.646;2024-02-16T02:02:33;5.60;;;5.60;;
20844;SDS011;10583;49.084;8.646;2024-02-16T02:05:04;5.13;;;5.13;;
20844;SDS011;10583;49.084;8.646;2024-02-16T02:07:31;5.00;;;5.00;;
20844;SDS011;10583;49.084;8.646;2024-02-16T02:09:58;4.80;;;4.80;;
20844;SDS011;10583;49.084;8.646;2024-02-16T02:12:26;4.87;;;4.87;;
20844;SDS011;10583;49.084;8.646;2024-02-16T02:14:53;5.27;;;5.27;;
20844;SDS011;10583;49.084;8.646;2024-02-16T02:17:20;4.70;;;4.70;;
20844;SDS011;10583;49.084;8.646;2024-02-16T02:19:47;4.60;;;4.60;;
20844;SDS011;10583;49.084;8.646;2024-02-16T02:22:16;4.87;;;4.87;;
20844;SDS011;10583;49.084;8.646;2024-02-16T02:24:44;5.00;;;5.00;;
20844;SDS011;10583;49.084;8.646;2024-02-16T02:27:12;4.33;;;4.33;;
20844;SDS011;10583;49.084;8.646;2024-02-16T02:29:39;4.43;;;4.43;;
20844;SDS011;10583;49.084;8.646;2024-02-16T02:32:06;4.30;;;4.30;;
20844;SDS011;10583;49.084;8.646;2024-02-16T02:34:34;4.23;;;4.23;;
20844;SDS011;10583;49.084;8.646;2024-02-16T02:37:02;4.77;;;4.77;;
20844;SDS011;10583;49.084;8.646;2024-02-16T02:39:31;4.80;;;4.80;;
20844;SDS011;10583;49.084;8.646;2024-02-16T02:41:59;4.20;;;4.20;;
20844;SDS011;10583;49.084;8.646;2024-02-16T02:44:26;4.30;;;4.30;;
20844;SDS011;10583;49.084;8.646;2024-02-16T02:46:54;4.70;;;4.70;;
20844;SDS011;10583;49.084;8.646;2024-02-16T02:49:21;4.47;;;4.47;;
20844;SDS011;10583;49.084;8.646;2024-02-16T02:51:48;4.47;;;4.47;;
20844;SDS011;10583;49.084;8.646;2024-02-16T02:54:15;4.73;;;4.73;;
20844;SDS011;10583;49.084;8.646;2024-02-16T02:56:43;4.00;;;4.00;;
20844;SDS011;10583;49.084;8.646;2024-02-16T02:59:10;4.83;;;4.83;;
20844;SDS011;10583;49.084;8.646;2024-02-16T03:01:37;4.47;;;4.47;;
20844;SDS011;10583;49.084;8.646;2024-02-16T03:04:04;4.10;;;4.10;;
20844;SDS011;10583;49.084;8.646;2024-02-16T03:06:31;4.73;;;4.73;;
20844;SDS011;10583;49.084;8.646;2024-02-16T03:08:58;4.30;;;4.30;;
20844;SDS011;10583;49.084;8.646;2024-02-16T03:11:25;4.33;;;4.33;;
20844;SDS011;10583;49.084;8.646;2024-02-16T03:13:53;4.73;;;4.73;;
20844;SDS011;10583;49.084;8.646;2024-02-16T03:16:20;4.47;;;4.47;;
20844;SDS011;10583;49.084;8.646;2024-02-16T03:18:47;4.50;;;4.50;;
20844;SDS011;10583;49.084;8.646;2024-02-16T03:21:14;5.00;;;5.00;;
20844;SDS011;10583;49.084;8.646;2024-02-16T03:23:42;4.40;;;4.40;;
20844;SDS011;10583;49.084;8.646;2024-02-16T03:26:15;5.20;;;5.20;;
20844;SDS011;10583;49.084;8.646;2024-02-16T03:28:43;4.60;;;4.60;;
20844;SDS011;10583;49.084;8.646;2024-02-16T03:31:18;4.63;;;4.63;;
20844;SDS011;10583;49.084;8.646;2024-02-16T03:33:45;4.60;;;4.60;;
20844;SDS011;10583;49.084;8.646;2024-02-16T03:36:12;4.33;;;4.33;;
20844;SDS011;10583;49.084;8.646;2024-02-16T03:38:41;4.47;;;4.47;;
20844;SDS011;10583;49.084;8.646;2024-02-16T03:41:12;4.60;;;4.60;;
20844;SDS011;10583;49.084;8.646;2024-02-16T03:43:39;4.10;;;4.10;;
20844;SDS011;10583;49.084;8.646;2024-02-16T03:46:07;3.63;;;3.63;;
20844;SDS011;10583;49.084;8.646;2024-02-16T03:48:35;4.90;;;4.90;;
20844;SDS011;10583;49.084;8.646;2024-02-16T03:51:02;4.77;;;4.77;;
20844;SDS011;10583;49.084;8.646;2024-02-16T03:53:29;4.43;;;4.43;;
20844;SDS011;10583;49.084;8.646;2024-02-16T03:55:56;4.10;;;4.10;;
20844;SDS011;10583;49.084;8.646;2024-02-16T03:58:24;4.07;;;4.07;;
20844;SDS011;10583;49.084;8.646;2024-02-16T04:00:51;4.37;;;4.37;;
20844;SDS011;10583;49.084;8.646;2024-02-16T04:03:18;3.47;;;3.47;;
20844;SDS011;10583;49.084;8.646;2024-02-16T04:05:47;4.30;;;4.30;;
20844;SDS011;10583;49.084;8.646;2024-02-16T04:08:14;3.77;;;3.77;;
20844;SDS011;10583;49.084;8.646;2024-02-16T04:10:41;4.37;;;4.37;;
20844;SDS011;10583;49.084;8.646;2024-02-16T04:13:08;4.67;;;4.67;;
20844;SDS011;10583;49.084;8.646;2024-02-16T04:15:35;4.37;;;4.37;;
20844;SDS011;10583;49.084;8.646;2024-02-16T04:18:03;4.67;;;4.67;;
20844;SDS011;10583;49.084;8.646;2024-02-16T04:20:31;3.80;;;3.80;;
20844;SDS011;10583;49.084;8.646;2024-02-16T04:23:00;3.73;;;3.73;;
20844;SDS011;10583;49.084;8.646;2024-02-16T04:25:26;3.80;;;3.80;;
20844;SDS011;10583;49.084;8.646;2024-02-16T04:27:53;3.63;;;3.63;;
20844;SDS011;10583;49.084;8.646;2024-02-16T04:30:20;4.50;;;4.50;;
20844;SDS011;10583;49.084;8.646;2024-02-16T04:32:48;3.93;;;3.93;;
20844;SDS011;10583;49.084;8.646;2024-02-16T04:35:15;3.77;;;3.77;;
20844;SDS011;10583;49.084;8.646;2024-02-16T04:37:42;3.83;;;3.83;;
20844;SDS011;10583;49.084;8.646;2024-02-16T04:40:10;3.67;;;3.67;;
20844;SDS011;10583;49.084;8.646;2024-02-16T04:42:38;3.33;;;3.33;;
20844;SDS011;10583;49.084;8.646;2024-02-16T04:45:06;3.67;;;3.67;;
20844;SDS011;10583;49.084;8.646;2024-02-16T04:47:34;4.00;;;4.00;;
20844;SDS011;10583;49.084;8.646;2024-02-16T04:50:01;4.00;;;4.00;;
20844;SDS011;10583;49.084;8.646;2024-02-16T04:52:28;3.73;;;3.73;;
20844;SDS011;10583;49.084;8.646;2024-02-16T04:54:55;3.53;;;3.53;;
20844;SDS011;10583;49.084;8.646;2024-02-16T04:57:23;4.77;;;4.77;;
20844;SDS011;10583;49.084;8.646;2024-02-16T04:59:50;4.67;;;4.67;;
20844;SDS011;10583;49.084;8.646;2024-02-16T05:02:17;4.70;;;4.70;;
20844;SDS011;10583;49.084;8.646;2024-02-16T05:04:44;3.73;;;3.73;;
20844;SDS011;10583;49.084;8.646;2024-02-16T05:07:11;3.60;;;3.60;;
20844;SDS011;10583;49.084;8.646;2024-02-16T05:09:40;4.30;;;4.30;;
20844;SDS011;10583;49.084;8.646;2024-02-16T05:12:08;3.60;;;3.60;;
20844;SDS011;10583;49.084;8.646;2024-02-16T05:14:36;4.30;;;4.30;;
20844;SDS011;10583;49.084;8.646;2024-02-16T05:17:02;4.90;;;4.90;;
20844;SDS011;10583;49.084;8.646;2024-02-16T05:19:32;5.13;;;5.13;;
20844;SDS011;10583;49.084;8.646;2024-02-16T05:22:00;5.27;;;5.27;;
20844;SDS011;10583;49.084;8.646;2024-02-16T05:24:27;5.30;;;5.30;;
20844;SDS011;10583;49.084;8.646;2024-02-16T05:26:54;4.50;;;4.50;;
20844;SDS011;10583;49.084;8.646;2024-02-16T05:29:21;5.13;;;5.13;;
20844;SDS011;10583;49.084;8.646;2024-02-16T05:31:51;5.13;;;5.13;;
20844;SDS011;10583;49.084;8.646;2024-02-16T05:34:19;4.83;;;4.83;;
20844;SDS011;10583;49.084;8.646;2024-02-16T05:36:46;5.07;;;5.07;;
20844;SDS011;10583;49.084;8.646;2024-02-16T05:39:13;4.80;;;4.80;;
20844;SDS011;10583;49.084;8.646;2024-02-16T05:41:51;5.00;;;5.00;;
20844;SDS011;10583;49.084;8.646;2024-02-16T05:44:19;4.70;;;4.70;;
20844;SDS011;10583;49.084;8.646;2024-02-16T05:46:46;4.20;;;4.20;;
20844;SDS011;10583;49.084;8.646;2024-02-16T05:49:15;5.07;;;5.07;;
20844;SDS011;10583;49.084;8.646;2024-02-16T05:51:42;4.10;;;4.10;;
20844;SDS011;10583;49.084;8.646;2024-02-16T05:54:26;4.40;;;4.40;;
20844;SDS011;10583;49.084;8.646;2024-02-16T05:56:53;4.60;;;4.60;;
20844;SDS011;10583;49.084;8.646;2024-02-16T05:59:20;4.40;;;4.40;;
20844;SDS011;10583;49.084;8.646;2024-02-16T06:01:47;4.10;;;4.10;;
20844;SDS011;10583;49.084;8.646;2024-02-16T06:04:16;4.40;;;4.40;;
20844;SDS011;10583;49.084;8.646;2024-02-16T06:06:43;4.20;;;4.20;;
20844;SDS011;10583;49.084;8.646;2024-02-16T06:09:10;4.50;;;4.50;;
20844;SDS011;10583;49.084;8.646;2024-02-16T06:11:37;4.03;;;4.03;;
20844;SDS011;10583;49.084;8.646;2024-02-16T06:14:04;5.60;;;5.60;;
20844;SDS011;10583;49.084;8.646;2024-02-16T06:16:31;4.40;;;4.40;;
20844;SDS011;10583;49.084;8.646;2024-02-16T06:18:59;4.73;;;4.73;;
20844;SDS011;10583;49.084;8.646;2024-02-16T06:21:27;4.03;;;4.03;;
20844;SDS011;10583;49.084;8.646;2024-02-16T06:23:54;4.10;;;4.10;;
20844;SDS011;10583;49.084;8.646;2024-02-16T06:26:21;4.10;;;4.10;;
20844;SDS011;10583;49.084;8.646;2024-02-16T06:28:48;3.90;;;3.90;;
20844;SDS011;10583;49.084;8.646;2024-02-16T06:31:15;4.70;;;4.70;;
20844;SDS011;10583;49.084;8.646;2024-02-16T06:33:42;4.10;;;4.10;;
20844;SDS011;10583;49.084;8.646;2024-02-16T06:36:09;3.93;;;3.93;;
20844;SDS011;10583;49.084;8.646;2024-02-16T06:38:37;4.37;;;4.37;;
20844;SDS011;10583;49.084;8.646;2024-02-16T06:41:04;4.10;;;4.10;;
20844;SDS011;10583;49.084;8.646;2024-02-16T06:43:31;4.37;;;4.37;;
20844;SDS011;10583;49.084;8.646;2024-02-16T06:45:58;4.53;;;4.53;;
20844;SDS011;10583;49.084;8.646;2024-02-16T06:48:25;5.30;;;5.30;;
20844;SDS011;10583;49.084;8.646;2024-02-16T06:50:52;4.57;;;4.57;;
20844;SDS011;10583;49.084;8.646;2024-02-16T06:53:19;5.10;;;5.10;;
20844;SDS011;10583;49.084;8.646;2024-02-16T06:55:48;4.23;;;4.23;;
20844;SDS011;10583;49.084;8.646;2024-02-16T06:58:15;4.03;;;4.03;;
20844;SDS011;10583;49.084;8.646;2024-02-16T07:00:42;4.67;;;4.67;;
20844;SDS011;10583;49.084;8.646;2024-02-16T07:03:09;4.60;;;4.60;;
20844;SDS011;10583;49.084;8.646;2024-02-16T07:05:36;4.47;;;4.47;;
20844;SDS011;10583;49.084;8.646;2024-02-16T07:08:04;4.63;;;4.63;;
20844;SDS011;10583;49.084;8.646;2024-02-16T07:10:32;4.87;;;4.87;;
20844;SDS011;10583;49.084;8.646;2024-02-16T07:13:01;4.80;;;4.80;;
20844;SDS011;10583;49.084;8.646;2024-02-16T07:15:29;4.63;;;4.63;;
20844;SDS011;10583;49.084;8.646;2024-02-16T07:17:56;4.40;;;4.40;;
20844;SDS011;10583;49.084;8.646;2024-02-16T07:20:23;4.57;;;4.57;;
20844;SDS011;10583;49.084;8.646;2024-02-16T07:22:50;4.23;;;4.23;;
20844;SDS011;10583;49.084;8.646;2024-02-16T07:25:17;4.07;;;4.07;;
20844;SDS011;10583;49.084;8.646;2024-02-16T07:27:44;4.43;;;4.43;;
20844;SDS011;10583;49.084;8.646;2024-02-16T07:30:13;4.30;;;4.30;;
20844;SDS011;10583;49.084;8.646;2024-02-16T07:32:40;5.63;;;5.63;;
20844;SDS011;10583;49.084;8.646;2024-02-16T07:35:08;5.60;;;5.60;;
20844;SDS011;10583;49.084;8.646;2024-02-16T07:37:35;4.83;;;4.83;;
20844;SDS011;10583;49.084;8.646;2024-02-16T07:40:03;5.70;;;5.70;;
20844;SDS011;10583;49.084;8.646;2024-02-16T07:42:34;5.43;;;5.43;;
20844;SDS011;10583;49.084;8.646;2024-02-16T07:45:04;5.30;;;5.30;;
20844;SDS011;10583;49.084;8.646;2024-02-16T07:47:33;5.50;;;5.50;;
20844;SDS011;10583;49.084;8.646;2024-02-16T07:50:00;5.10;;;5.10;;
20844;SDS011;10583;49.084;8.646;2024-02-16T07:52:28;5.67;;;5.67;;
20844;SDS011;10583;49.084;8.646;2024-02-16T07:54:55;5.87;;;5.87;;
20844;SDS011;10583;49.084;8.646;2024-02-16T07:57:22;6.57;;;6.57;;
20844;SDS011;10583;49.084;8.646;2024-02-16T07:59:49;6.47;;;6.47;;
20844;SDS011;10583;49.084;8.646;2024-02-16T08:02:16;7.50;;;7.50;;
20844;SDS011;10583;49.084;8.646;2024-02-16T08:04:47;7.23;;;7.23;;
20844;SDS011;10583;49.084;8.646;2024-02-16T08:07:15;7.40;;;7.40;;
20844;SDS011;10583;49.084;8.646;2024-02-16T08:09:44;7.90;;;7.90;;
20844;SDS011;10583;49.084;8.646;2024-02-16T08:12:11;7.53;;;7.53;;
20844;SDS011;10583;49.084;8.646;2024-02-16T08:14:38;6.30;;;6.30;;
20844;SDS011;10583;49.084;8.646;2024-02-16T08:17:05;6.50;;;6.50;;
20844;SDS011;10583;49.084;8.646;2024-02-16T08:19:32;6.70;;;6.70;;
20844;SDS011;10583;49.084;8.646;2024-02-16T08:22:02;5.77;;;5.77;;
20844;SDS011;10583;49.084;8.646;2024-02-16T08:24:31;5.97;;;5.97;;
20844;SDS011;10583;49.084;8.646;2024-02-16T08:27:00;5.90;;;5.90;;
20844;SDS011;10583;49.084;8.646;2024-02-16T08:29:27;5.63;;;5.63;;
20844;SDS011;10583;49.084;8.646;2024-02-16T08:31:54;5.40;;;5.40;;
20844;SDS011;10583;49.084;8.646;2024-02-16T08:34:21;6.00;;;6.00;;
20844;SDS011;10583;49.084;8.646;2024-02-16T08:36:53;5.37;;;5.37;;
20844;SDS011;10583;49.084;8.646;2024-02-16T08:39:21;5.60;;;5.60;;
20844;SDS011;10583;49.084;8.646;2024-02-16T08:41:50;5.67;;;5.67;;
20844;SDS011;10583;49.084;8.646;2024-02-16T08:44:18;6.10;;;6.10;;
20844;SDS011;10583;49.084;8.646;2024-02-16T08:46:45;5.90;;;5.90;;
20844;SDS011;10583;49.084;8.646;2024-02-16T08:49:13;6.30;;;6.30;;
20844;SDS011;10583;49.084;8.646;2024-02-16T08:51:42;6.23;;;6.23;;
20844;SDS011;10583;49.084;8.646;2024-02-16T08:54:09;6.03;;;6.03;;
20844;SDS011;10583;49.084;8.646;2024-02-16T08:56:37;6.10;;;6.10;;
20844;SDS011;10583;49.084;8.646;2024-02-16T08:59:07;6.00;;;6.00;;
20844;SDS011;10583;49.084;8.646;2024-02-16T09:01:34;6.33;;;6.33;;
20844;SDS011;10583;49.084;8.646;2024-02-16T09:04:02;6.40;;;6.40;;
20844;SDS011;10583;49.084;8.646;2024-02-16T09:06:29;5.90;;;5.90;;
20844;SDS011;10583;49.084;8.646;2024-02-16T09:08:56;5.53;;;5.53;;
20844;SDS011;10583;49.084;8.646;2024-02-16T09:11:23;6.27;;;6.27;;
20844;SDS011;10583;49.084;8.646;2024-02-16T09:13:51;6.70;;;6.70;;
20844;SDS011;10583;49.084;8.646;2024-02-16T09:16:18;5.87;;;5.87;;
20844;SDS011;10583;49.084;8.646;2024-02-16T09:18:45;5.70;;;5.70;;
20844;SDS011;10583;49.084;8.646;2024-02-16T09:21:13;6.37;;;6.37;;
20844;SDS011;10583;49.084;8.646;2024-02-16T09:23:40;5.50;;;5.50;;
20844;SDS011;10583;49.084;8.646;2024-02-16T09:26:07;6.27;;;6.27;;
20844;SDS011;10583;49.084;8.646;2024-02-16T09:28:38;5.67;;;5.67;;
20844;SDS011;10583;49.084;8.646;2024-02-16T09:31:06;6.33;;;6.33;;
20844;SDS011;10583;49.084;8.646;2024-02-16T09:33:33;6.07;;;6.07;;
20844;SDS011;10583;49.084;8.646;2024-02-16T09:36:00;6.37;;;6.37;;
20844;SDS011;10583;49.084;8.646;2024-02-16T09:38:27;5.97;;;5.97;;
20844;SDS011;10583;49.084;8.646;2024-02-16T09:40:54;6.97;;;6.97;;
20844;SDS011;10583;49.084;8.646;2024-02-16T09:43:24;6.40;;;6.40;;
20844;SDS011;10583;49.084;8.646;2024-02-16T09:45:53;6.47;;;6.47;;
20844;SDS011;10583;49.084;8.646;2024-02-16T09:48:25;6.50;;;6.50;;
20844;SDS011;10583;49.084;8.646;2024-02-16T09:50:54;6.83;;;6.83;;
20844;SDS011;10583;49.084;8.646;2024-02-16T09:53:24;7.27;;;7.27;;
20844;SDS011;10583;49.084;8.646;2024-02-16T09:55:51;6.57;;;6.57;;
20844;SDS011;10583;49.084;8.646;2024-02-16T09:58:19;6.33;;;6.33;;
20844;SDS011;10583;49.084;8.646;2024-02-16T10:00:49;6.87;;;6.87;;
20844;SDS011;10583;49.084;8.646;2024-02-16T10:03:28;6.53;;;6.53;;
20844;SDS011;10583;49.084;8.646;2024-02-16T10:06:04;6.73;;;6.73;;
20844;SDS011;10583;49.084;8.646;2024-02-16T10:08:32;7.30;;;7.30;;
20844;SDS011;10583;49.084;8.646;2024-02-16T10:11:00;7.10;;;7.10;;
20844;SDS011;10583;49.084;8.646;2024-02-16T10:13:28;7.00;;;7.00;;
20844;SDS011;10583;49.084;8.646;2024-02-16T10:16:05;6.40;;;6.40;;
20844;SDS011;10583;49.084;8.646;2024-02-16T10:18:35;6.20;;;6.20;;
20844;SDS011;10583;49.084;8.646;2024-02-16T10:21:02;6.37;;;6.37;;
20844;SDS011;10583;49.084;8.646;2024-02-16T10:23:29;5.60;;;5.60;;
20844;SDS011;10583;49.084;8.646;2024-02-16T10:25:57;5.40;;;5.40;;
20844;SDS011;10583;49.084;8.646;2024-02-16T10:28:28;4.23;;;4.23;;
20844;SDS011;10583;49.084;8.646;2024-02-16T10:30:56;5.20;;;5.20;;
20844;SDS011;10583;49.084;8.646;2024-02-16T10:33:25;4.30;;;4.30;;
20844;SDS011;10583;49.084;8.646;2024-02-16T10:35:55;3.20;;;3.20;;
20844;SDS011;10583;49.084;8.646;2024-02-16T10:38:23;3.20;;;3.20;;
20844;SDS011;10583;49.084;8.646;2024-02-16T10:40:52;4.77;;;4.77;;
20844;SDS011;10583;49.084;8.646;2024-02-16T10:43:20;4.70;;;4.70;;
20844;SDS011;10583;49.084;8.646;2024-02-16T10:45:47;4.50;;;4.50;;
20844;SDS011;10583;49.084;8.646;2024-02-16T10:48:22;4.57;;;4.57;;
20844;SDS011;10583;49.084;8.646;2024-02-16T10:50:49;4.80;;;4.80;;
20844;SDS011;10583;49.084;8.646;2024-02-16T10:53:19;5.30;;;5.30;;
20844;SDS011;10583;49.084;8.646;2024-02-16T10:55:49;4.57;;;4.57;;
20844;SDS011;10583;49.084;8.646;2024-02-16T10:58:16;4.67;;;4.67;;
20844;SDS011;10583;49.084;8.646;2024-02-16T11:00:50;4.43;;;4.43;;
20844;SDS011;10583;49.084;8.646;2024-02-16T11:03:18;3.73;;;3.73;;
20844;SDS011;10583;49.084;8.646;2024-02-16T11:05:49;4.00;;;4.00;;
20844;SDS011;10583;49.084;8.646;2024-02-16T11:08:16;4.00;;;4.00;;
20844;SDS011;10583;49.084;8.646;2024-02-16T11:13:38;2.10;;;2.10;;
20844;SDS011;10583;49.084;8.646;2024-02-16T11:16:06;2.63;;;2.63;;
20844;SDS011;10583;49.084;8.646;2024-02-16T11:18:37;2.53;;;2.53;;
20844;SDS011;10583;49.084;8.646;2024-02-16T11:21:05;2.70;;;2.70;;
20844;SDS011;10583;49.084;8.646;2024-02-16T11:23:33;2.50;;;2.50;;
20844;SDS011;10583;49.084;8.646;2024-02-16T11:26:01;2.80;;;2.80;;
20844;SDS011;10583;49.084;8.646;2024-02-16T11:28:34;2.00;;;2.00;;
20844;SDS011;10583;49.084;8.646;2024-02-16T11:31:01;2.20;;;2.20;;
20844;SDS011;10583;49.084;8.646;2024-02-16T11:33:29;2.37;;;2.37;;
20844;SDS011;10583;49.084;8.646;2024-02-16T11:35:55;2.10;;;2.10;;
20844;SDS011;10583;49.084;8.646;2024-02-16T11:38:23;2.60;;;2.60;;
20844;SDS011;10583;49.084;8.646;2024-02-16T11:40:56;2.60;;;2.60;;
20844;SDS011;10583;49.084;8.646;2024-02-16T11:43:24;2.30;;;2.30;;
20844;SDS011;10583;49.084;8.646;2024-02-16T11:45:53;2.27;;;2.27;;
20844;SDS011;10583;49.084;8.646;2024-02-16T11:48:23;2.43;;;2.43;;
20844;SDS011;10583;49.084;8.646;2024-02-16T11:50:59;2.30;;;2.30;;
20844;SDS011;10583;49.084;8.646;2024-02-16T11:53:27;1.97;;;1.97;;
20844;SDS011;10583;49.084;8.646;2024-02-16T11:55:57;2.13;;;2.13;;
20844;SDS011;10583;49.084;8.646;2024-02-16T11:58:25;2.10;;;2.10;;
20844;SDS011;10583;49.084;8.646;2024-02-16T12:00:53;2.23;;;2.23;;
20844;SDS011;10583;49.084;8.646;2024-02-16T12:03:25;2.50;;;2.50;;
20844;SDS011;10583;49.084;8.646;2024-02-16T12:05:55;2.67;;;2.67;;
20844;SDS011;10583;49.084;8.646;2024-02-16T12:08:23;2.40;;;2.40;;
20844;SDS011;10583;49.084;8.646;2024-02-16T12:10:57;1.90;;;1.90;;
20844;SDS011;10583;49.084;8.646;2024-02-16T12:13:24;2.30;;;2.30;;
20844;SDS011;10583;49.084;8.646;2024-02-16T12:15:51;2.27;;;2.27;;
20844;SDS011;10583;49.084;8.646;2024-02-16T12:18:21;2.77;;;2.77;;
20844;SDS011;10583;49.084;8.646;2024-02-16T12:20:58;2.20;;;2.20;;
20844;SDS011;10583;49.084;8.646;2024-02-16T12:23:25;2.03;;;2.03;;
20844;SDS011;10583;49.084;8.646;2024-02-16T12:25:52;2.70;;;2.70;;
20844;SDS011;10583;49.084;8.646;2024-02-16T12:28:19;2.63;;;2.63;;
20844;SDS011;10583;49.084;8.646;2024-02-16T12:30:50;2.17;;;2.17;;
20844;SDS011;10583;49.084;8.646;2024-02-16T12:33:18;2.50;;;2.50;;
20844;SDS011;10583;49.084;8.646;2024-02-16T12:35:44;2.50;;;2.50;;
20844;SDS011;10583;49.084;8.646;2024-02-16T12:38:11;2.53;;;2.53;;
20844;SDS011;10583;49.084;8.646;2024-02-16T12:40:38;2.47;;;2.47;;
20844;SDS011;10583;49.084;8.646;2024-02-16T12:43:05;2.73;;;2.73;;
20844;SDS011;10583;49.084;8.646;2024-02-16T12:45:33;2.27;;;2.27;;
20844;SDS011;10583;49.084;8.646;2024-02-16T12:48:00;2.47;;;2.47;;
20844;SDS011;10583;49.084;8.646;2024-02-16T12:50:30;2.40;;;2.40;;
20844;SDS011;10583;49.084;8.646;2024-02-16T12:52:57;2.40;;;2.40;;
20844;SDS011;10583;49.084;8.646;2024-02-16T12:55:24;2.53;;;2.53;;
20844;SDS011;10583;49.084;8.646;2024-02-16T12:57:51;1.93;;;1.93;;
20844;SDS011;10583;49.084;8.646;2024-02-16T13:00:18;2.00;;;2.00;;
20844;SDS011;10583;49.084;8.646;2024-02-16T13:02:45;2.50;;;2.50;;
20844;SDS011;10583;49.084;8.646;2024-02-16T13:05:11;2.37;;;2.37;;
20844;SDS011;10583;49.084;8.646;2024-02-16T13:07:39;2.77;;;2.77;;
20844;SDS011;10583;49.084;8.646;2024-02-16T13:10:07;2.40;;;2.40;;
20844;SDS011;10583;49.084;8.646;2024-02-16T13:12:34;2.17;;;2.17;;
20844;SDS011;10583;49.084;8.646;2024-02-16T13:15:02;5.03;;;5.03;;
20844;SDS011;10583;49.084;8.646;2024-02-16T13:17:30;3.20;;;3.20;;
20844;SDS011;10583;49.084;8.646;2024-02-16T13:19:58;2.00;;;2.00;;
20844;SDS011;10583;49.084;8.646;2024-02-16T13:22:32;2.50;;;2.50;;
20844;SDS011;10583;49.084;8.646;2024-02-16T13:25:02;2.67;;;2.67;;
20844;SDS011;10583;49.084;8.646;2024-02-16T13:27:29;2.63;;;2.63;;
20844;SDS011;10583;49.084;8.646;2024-02-16T13:29:56;2.07;;;2.07;;
20844;SDS011;10583;49.084;8.646;2024-02-16T13:32:23;2.23;;;2.23;;
20844;SDS011;10583;49.084;8.646;2024-02-16T13:34:50;2.10;;;2.10;;
20844;SDS011;10583;49.084;8.646;2024-02-16T13:37:17;3.70;;;3.70;;
20844;SDS011;10583;49.084;8.646;2024-02-16T13:39:43;1.53;;;1.53;;
20844;SDS011;10583;49.084;8.646;2024-02-16T13:42:12;2.00;;;2.00;;
20844;SDS011;10583;49.084;8.646;2024-02-16T13:44:39;2.03;;;2.03;;
20844;SDS011;10583;49.084;8.646;2024-02-16T13:47:06;1.93;;;1.93;;
20844;SDS011;10583;49.084;8.646;2024-02-16T13:49:33;1.60;;;1.60;;
20844;SDS011;10583;49.084;8.646;2024-02-16T13:52:00;1.53;;;1.53;;
20844;SDS011;10583;49.084;8.646;2024-02-16T13:54:28;1.50;;;1.50;;
20844;SDS011;10583;49.084;8.646;2024-02-16T13:56:54;1.90;;;1.90;;
20844;SDS011;10583;49.084;8.646;2024-02-16T13:59:22;2.07;;;2.07;;
20844;SDS011;10583;49.084;8.646;2024-02-16T14:01:49;1.90;;;1.90;;
20844;SDS011;10583;49.084;8.646;2024-02-16T14:04:16;1.87;;;1.87;;
20844;SDS011;10583;49.084;8.646;2024-02-16T14:06:43;2.23;;;2.23;;
20844;SDS011;10583;49.084;8.646;2024-02-16T14:09:10;2.00;;;2.00;;
20844;SDS011;10583;49.084;8.646;2024-02-16T14:11:39;2.07;;;2.07;;
20844;SDS011;10583;49.084;8.646;2024-02-16T14:14:07;1.73;;;1.73;;
20844;SDS011;10583;49.084;8.646;2024-02-16T14:16:35;2.23;;;2.23;;
20844;SDS011;10583;49.084;8.646;2024-02-16T14:19:02;1.97;;;1.97;;
20844;SDS011;10583;49.084;8.646;2024-02-16T14:21:29;1.93;;;1.93;;
20844;SDS011;10583;49.084;8.646;2024-02-16T14:23:55;2.30;;;2.30;;
20844;SDS011;10583;49.084;8.646;2024-02-16T14:26:22;2.20;;;2.20;;
20844;SDS011;10583;49.084;8.646;2024-02-16T14:28:49;2.27;;;2.27;;
20844;SDS011;10583;49.084;8.646;2024-02-16T14:31:16;2.10;;;2.10;;
20844;SDS011;10583;49.084;8.646;2024-02-16T14:33:46;1.67;;;1.67;;
20844;SDS011;10583;49.084;8.646;2024-02-16T14:36:13;1.63;;;1.63;;
20844;SDS011;10583;49.084;8.646;2024-02-16T14:38:40;1.50;;;1.50;;
20844;SDS011;10583;49.084;8.646;2024-02-16T14:41:07;1.30;;;1.30;;
20844;SDS011;10583;49.084;8.646;2024-02-16T14:43:34;1.20;;;1.20;;
20844;SDS011;10583;49.084;8.646;2024-02-16T14:46:02;1.20;;;1.20;;
20844;SDS011;10583;49.084;8.646;2024-02-16T14:48:29;1.30;;;1.30;;
20844;SDS011;10583;49.084;8.646;2024-02-16T14:50:58;1.73;;;1.73;;
20844;SDS011;10583;49.084;8.646;2024-02-16T14:53:24;1.70;;;1.70;;
20844;SDS011;10583;49.084;8.646;2024-02-16T14:55:51;1.50;;;1.50;;